sensor_id;sensor_type;location;lat;lon;timestamp;pressure;altitude;pressure_sealevel;temperature;humidity
66668;BME280;57205;51.438;-2.006;2022-12-07T00:01:14;101780.56;;;1.14;100.00
66668;BME280;57205;51.438;-2.006;2022-12-07T00:03:41;101783.19;;;1.14;100.00
66668;BME280;57205;51.438;-2.006;2022-12-07T00:06:08;101787.03;;;1.11;100.00
66668;BME280;57205;51.438;-2.006;2022-12-07T00:08:35;101787.34;;;1.08;100.00
66668;BME280;57205;51.438;-2.006;2022-12-07T00:11:06;101780.44;;;1.07;100.00
66668;BME280;57205;51.438;-2.006;2022-12-07T00:13:32;101784.25;;;1.05;100.00
66668;BME280;57205;51.438;-2.006;2022-12-07T00:18:27;101781.31;;;0.99;100.00
66668;BME280;57205;51.438;-2.006;2022-12-07T00:20:53;101780.19;;;0.94;100.00
66668;BME280;57205;51.438;-2.006;2022-12-07T00:23:18;101774.63;;;0.89;100.00
66668;BME280;57205;51.438;-2.006;2022-12-07T00:25:43;101773.16;;;0.86;100.00
66668;BME280;57205;51.438;-2.006;2022-12-07T00:28:09;101772.84;;;0.81;100.00
66668;BME280;57205;51.438;-2.006;2022-12-07T00:30:35;101765.47;;;0.77;100.00
66668;BME280;57205;51.438;-2.006;2022-12-07T00:33:01;101766.97;;;0.71;100.00
66668;BME280;57205;51.438;-2.006;2022-12-07T00:35:26;101765.19;;;0.64;100.00
66668;BME280;57205;51.438;-2.006;2022-12-07T00:37:52;101767.53;;;0.59;100.00
66668;BME280;57205;51.438;-2.006;2022-12-07T00:40:18;101771.31;;;0.56;100.00
66668;BME280;57205;51.438;-2.006;2022-12-07T00:42:43;101764.91;;;0.51;100.00
66668;BME280;57205;51.438;-2.006;2022-12-07T00:45:09;101763.28;;;0.50;100.00
66668;BME280;57205;51.438;-2.006;2022-12-07T00:47:34;101759.81;;;0.49;100.00
66668;BME280;57205;51.438;-2.006;2022-12-07T00:50:00;101754.25;;;0.44;100.00
66668;BME280;57205;51.438;-2.006;2022-12-07T00:52:25;101763.47;;;0.40;100.00
66668;BME280;57205;51.438;-2.006;2022-12-07T00:54:51;101757.91;;;0.35;100.00
66668;BME280;57205;51.438;-2.006;2022-12-07T00:57:16;101754.63;;;0.33;100.00
66668;BME280;57205;51.438;-2.006;2022-12-07T00:59:41;101752.97;;;0.32;100.00
66668;BME280;57205;51.438;-2.006;2022-12-07T01:02:07;101751.16;;;0.33;100.00
66668;BME280;57205;51.438;-2.006;2022-12-07T01:04:34;101749.69;;;0.30;100.00
66668;BME280;57205;51.438;-2.006;2022-12-07T01:06:59;101749.69;;;0.30;100.00
66668;BME280;57205;51.438;-2.006;2022-12-07T01:09:25;101756.59;;;0.31;100.00
66668;BME280;57205;51.438;-2.006;2022-12-07T01:11:50;101749.03;;;0.28;100.00
66668;BME280;57205;51.438;-2.006;2022-12-07T01:14:15;101744.94;;;0.26;100.00
66668;BME280;57205;51.438;-2.006;2022-12-07T01:16:41;101741.84;;;0.22;100.00
66668;BME280;57205;51.438;-2.006;2022-12-07T01:19:06;101745.44;;;0.21;100.00
66668;BME280;57205;51.438;-2.006;2022-12-07T01:21:33;101747.75;;;0.16;100.00
66668;BME280;57205;51.438;-2.006;2022-12-07T01:24:09;101738.06;;;0.17;100.00
66668;BME280;57205;51.438;-2.006;2022-12-07T01:26:35;101740.03;;;0.15;100.00
66668;BME280;57205;51.438;-2.006;2022-12-07T01:29:00;101739.22;;;0.14;100.00
66668;BME280;57205;51.438;-2.006;2022-12-07T01:31:27;101737.56;;;0.13;100.00
66668;BME280;57205;51.438;-2.006;2022-12-07T01:33:57;101738.91;;;0.09;100.00
66668;BME280;57205;51.438;-2.006;2022-12-07T01:36:26;101733.78;;;0.08;100.00
66668;BME280;57205;51.438;-2.006;2022-12-07T01:38:55;101734.97;;;0.05;100.00
66668;BME280;57205;51.438;-2.006;2022-12-07T01:41:23;101735.94;;;0.04;100.00
66668;BME280;57205;51.438;-2.006;2022-12-07T01:44:24;101732.66;;;0.02;100.00
66668;BME280;57205;51.438;-2.006;2022-12-07T01:46:58;101731.03;;;0.01;100.00
66668;BME280;57205;51.438;-2.006;2022-12-07T01:52:19;101733.50;;;0.03;100.00
66668;BME280;57205;51.438;-2.006;2022-12-07T01:54:49;101732.50;;;0.04;100.00
66668;BME280;57205;51.438;-2.006;2022-12-07T01:57:16;101738.25;;;0.07;100.00
66668;BME280;57205;51.438;-2.006;2022-12-07T01:59:43;101734.13;;;0.05;100.00
66668;BME280;57205;51.438;-2.006;2022-12-07T02:02:18;101736.94;;;0.03;100.00
66668;BME280;57205;51.438;-2.006;2022-12-07T02:04:45;101739.94;;;0.00;100.00
66668;BME280;57205;51.438;-2.006;2022-12-07T02:07:11;101740.91;;;-0.01;100.00
66668;BME280;57205;51.438;-2.006;2022-12-07T02:09:36;101747.16;;;-0.02;100.00
66668;BME280;57205;51.438;-2.006;2022-12-07T02:12:02;101748.31;;;-0.05;100.00
66668;BME280;57205;51.438;-2.006;2022-12-07T02:14:28;101742.22;;;-0.05;100.00
66668;BME280;57205;51.438;-2.006;2022-12-07T02:17:14;101739.75;;;-0.07;100.00
66668;BME280;57205;51.438;-2.006;2022-12-07T02:28:01;101740.09;;;-0.18;100.00
66668;BME280;57205;51.438;-2.006;2022-12-07T02:30:33;101734.38;;;-0.21;100.00
66668;BME280;57205;51.438;-2.006;2022-12-07T02:33:00;101739.63;;;-0.21;100.00
66668;BME280;57205;51.438;-2.006;2022-12-07T02:35:43;101737.00;;;-0.21;100.00
66668;BME280;57205;51.438;-2.006;2022-12-07T02:38:26;101729.41;;;-0.24;100.00
66668;BME280;57205;51.438;-2.006;2022-12-07T02:41:00;101733.22;;;-0.27;100.00
66668;BME280;57205;51.438;-2.006;2022-12-07T02:43:30;101729.94;;;-0.29;100.00
66668;BME280;57205;51.438;-2.006;2022-12-07T02:46:08;101738.16;;;-0.32;100.00
66668;BME280;57205;51.438;-2.006;2022-12-07T02:48:36;101728.78;;;-0.34;100.00
66668;BME280;57205;51.438;-2.006;2022-12-07T02:51:03;101725.50;;;-0.36;100.00
66668;BME280;57205;51.438;-2.006;2022-12-07T02:56:00;101731.75;;;-0.45;100.00
66668;BME280;57205;51.438;-2.006;2022-12-07T03:03:31;101727.16;;;-0.51;100.00
66668;BME280;57205;51.438;-2.006;2022-12-07T03:06:11;101728.81;;;-0.50;100.00
66668;BME280;57205;51.438;-2.006;2022-12-07T03:11:14;101722.56;;;-0.49;100.00
66668;BME280;57205;51.438;-2.006;2022-12-07T03:16:47;101724.03;;;-0.47;100.00
66668;BME280;57205;51.438;-2.006;2022-12-07T03:19:19;101721.72;;;-0.50;100.00
66668;BME280;57205;51.438;-2.006;2022-12-07T03:21:58;101720.56;;;-0.55;100.00
66668;BME280;57205;51.438;-2.006;2022-12-07T03:24:29;101717.16;;;-0.56;100.00
66668;BME280;57205;51.438;-2.006;2022-12-07T03:27:03;101723.88;;;-0.53;100.00
66668;BME280;57205;51.438;-2.006;2022-12-07T03:29:37;101724.88;;;-0.54;100.00
66668;BME280;57205;51.438;-2.006;2022-12-07T03:32:15;101721.25;;;-0.53;100.00
66668;BME280;57205;51.438;-2.006;2022-12-07T03:34:59;101719.44;;;-0.53;100.00
66668;BME280;57205;51.438;-2.006;2022-12-07T03:37:36;101715.97;;;-0.53;100.00
66668;BME280;57205;51.438;-2.006;2022-12-07T03:40:27;101709.41;;;-0.57;100.00
66668;BME280;57205;51.438;-2.006;2022-12-07T03:42:55;101716.00;;;-0.61;100.00
66668;BME280;57205;51.438;-2.006;2022-12-07T03:45:31;101708.44;;;-0.64;100.00
66668;BME280;57205;51.438;-2.006;2022-12-07T03:50:48;101711.22;;;-0.66;100.00
66668;BME280;57205;51.438;-2.006;2022-12-07T03:53:21;101708.13;;;-0.69;100.00
66668;BME280;57205;51.438;-2.006;2022-12-07T03:55:49;101708.41;;;-0.72;100.00
66668;BME280;57205;51.438;-2.006;2022-12-07T03:58:17;101711.38;;;-0.75;100.00
66668;BME280;57205;51.438;-2.006;2022-12-07T04:00:44;101709.75;;;-0.76;100.00
66668;BME280;57205;51.438;-2.006;2022-12-07T04:03:10;101712.38;;;-0.76;100.00
66668;BME280;57205;51.438;-2.006;2022-12-07T04:05:37;101717.78;;;-0.78;100.00
66668;BME280;57205;51.438;-2.006;2022-12-07T04:08:03;101701.53;;;-0.81;100.00
66668;BME280;57205;51.438;-2.006;2022-12-07T04:10:29;101704.16;;;-0.81;100.00
66668;BME280;57205;51.438;-2.006;2022-12-07T04:12:55;101701.69;;;-0.83;100.00
66668;BME280;57205;51.438;-2.006;2022-12-07T04:15:20;101696.94;;;-0.79;100.00
66668;BME280;57205;51.438;-2.006;2022-12-07T04:17:46;101699.91;;;-0.82;100.00
66668;BME280;57205;51.438;-2.006;2022-12-07T04:20:11;101699.22;;;-0.84;100.00
66668;BME280;57205;51.438;-2.006;2022-12-07T04:22:37;101699.22;;;-0.84;100.00
66668;BME280;57205;51.438;-2.006;2022-12-07T04:25:03;101697.09;;;-0.89;100.00
66668;BME280;57205;51.438;-2.006;2022-12-07T04:27:28;101704.66;;;-0.86;100.00
66668;BME280;57205;51.438;-2.006;2022-12-07T04:29:54;101707.47;;;-0.87;100.00
66668;BME280;57205;51.438;-2.006;2022-12-07T04:32:21;101701.53;;;-0.89;100.00
66668;BME280;57205;51.438;-2.006;2022-12-07T04:34:46;101698.25;;;-0.91;100.00
66668;BME280;57205;51.438;-2.006;2022-12-07T04:37:12;101689.72;;;-0.93;100.00
66668;BME280;57205;51.438;-2.006;2022-12-07T04:39:37;101687.25;;;-0.95;100.00
66668;BME280;57205;51.438;-2.006;2022-12-07T04:42:03;101690.84;;;-0.96;100.00
66668;BME280;57205;51.438;-2.006;2022-12-07T04:44:29;101690.19;;;-0.98;100.00
66668;BME280;57205;51.438;-2.006;2022-12-07T04:46:54;101683.31;;;-0.99;100.00
66668;BME280;57205;51.438;-2.006;2022-12-07T04:49:20;101683.13;;;-0.98;100.00
66668;BME280;57205;51.438;-2.006;2022-12-07T04:51:46;101688.56;;;-0.99;100.00
66668;BME280;57205;51.438;-2.006;2022-12-07T04:54:13;101692.00;;;-0.98;100.00
66668;BME280;57205;51.438;-2.006;2022-12-07T04:56:38;101692.16;;;-1.00;100.00
66668;BME280;57205;51.438;-2.006;2022-12-07T04:59:04;101692.00;;;-0.98;100.00
66668;BME280;57205;51.438;-2.006;2022-12-07T05:01:30;101689.22;;;-0.97;100.00
66668;BME280;57205;51.438;-2.006;2022-12-07T05:03:56;101687.91;;;-0.93;100.00
66668;BME280;57205;51.438;-2.006;2022-12-07T05:06:21;101691.84;;;-0.89;100.00
66668;BME280;57205;51.438;-2.006;2022-12-07T05:08:47;101694.94;;;-0.85;100.00
66668;BME280;57205;51.438;-2.006;2022-12-07T05:11:13;101696.94;;;-0.87;100.00
66668;BME280;57205;51.438;-2.006;2022-12-07T05:13:59;101697.25;;;-0.90;100.00
66668;BME280;57205;51.438;-2.006;2022-12-07T05:16:25;101695.63;;;-0.91;100.00
66668;BME280;57205;51.438;-2.006;2022-12-07T05:18:50;101690.38;;;-0.91;100.00
66668;BME280;57205;51.438;-2.006;2022-12-07T05:21:16;101701.38;;;-0.88;100.00
66668;BME280;57205;51.438;-2.006;2022-12-07T05:23:41;101691.03;;;-0.89;100.00
66668;BME280;57205;51.438;-2.006;2022-12-07T05:26:06;101687.06;;;-0.85;100.00
66668;BME280;57205;51.438;-2.006;2022-12-07T05:28:32;101691.19;;;-0.83;100.00
66668;BME280;57205;51.438;-2.006;2022-12-07T05:30:58;101684.44;;;-0.77;100.00
66668;BME280;57205;51.438;-2.006;2022-12-07T05:33:23;101688.22;;;-0.72;100.00
66668;BME280;57205;51.438;-2.006;2022-12-07T05:35:49;101686.44;;;-0.63;100.00
66668;BME280;57205;51.438;-2.006;2022-12-07T05:38:14;101690.03;;;-0.56;100.00
66668;BME280;57205;51.438;-2.006;2022-12-07T05:40:39;101686.75;;;-0.50;100.00
66668;BME280;57205;51.438;-2.006;2022-12-07T05:43:05;101683.78;;;-0.47;100.00
66668;BME280;57205;51.438;-2.006;2022-12-07T05:45:30;101684.75;;;-0.40;100.00
66668;BME280;57205;51.438;-2.006;2022-12-07T05:47:56;101684.91;;;-0.34;100.00
66668;BME280;57205;51.438;-2.006;2022-12-07T05:50:21;101688.03;;;-0.30;100.00
66668;BME280;57205;51.438;-2.006;2022-12-07T05:52:46;101685.72;;;-0.25;100.00
66668;BME280;57205;51.438;-2.006;2022-12-07T05:55:12;101689.81;;;-0.23;100.00
66668;BME280;57205;51.438;-2.006;2022-12-07T05:57:38;101679.78;;;-0.19;100.00
66668;BME280;57205;51.438;-2.006;2022-12-07T06:00:04;101679.13;;;-0.21;100.00
66668;BME280;57205;51.438;-2.006;2022-12-07T06:02:30;101679.44;;;-0.24;100.00
66668;BME280;57205;51.438;-2.006;2022-12-07T06:04:55;101684.72;;;-0.24;100.00
66668;BME280;57205;51.438;-2.006;2022-12-07T06:07:21;101676.81;;;-0.24;100.00
66668;BME280;57205;51.438;-2.006;2022-12-07T06:09:46;101674.06;;;-0.23;100.00
66668;BME280;57205;51.438;-2.006;2022-12-07T06:12:12;101673.22;;;-0.23;100.00
66668;BME280;57205;51.438;-2.006;2022-12-07T06:14:56;101674.84;;;-0.22;100.00
66668;BME280;57205;51.438;-2.006;2022-12-07T06:17:22;101678.66;;;-0.25;100.00
66668;BME280;57205;51.438;-2.006;2022-12-07T06:19:48;101674.72;;;-0.29;100.00
66668;BME280;57205;51.438;-2.006;2022-12-07T06:22:14;101674.56;;;-0.35;100.00
66668;BME280;57205;51.438;-2.006;2022-12-07T06:24:41;101680.81;;;-0.36;100.00
66668;BME280;57205;51.438;-2.006;2022-12-07T06:27:08;101682.13;;;-0.40;100.00
66668;BME280;57205;51.438;-2.006;2022-12-07T06:29:34;101682.47;;;-0.43;100.00
66668;BME280;57205;51.438;-2.006;2022-12-07T06:32:00;101682.78;;;-0.46;100.00
66668;BME280;57205;51.438;-2.006;2022-12-07T06:34:26;101679.50;;;-0.48;100.00
66668;BME280;57205;51.438;-2.006;2022-12-07T06:36:52;101681.50;;;-0.50;100.00
66668;BME280;57205;51.438;-2.006;2022-12-07T06:39:23;101685.44;;;-0.54;100.00
66668;BME280;57205;51.438;-2.006;2022-12-07T06:41:49;101678.88;;;-0.58;100.00
66668;BME280;57205;51.438;-2.006;2022-12-07T06:44:14;101679.22;;;-0.61;100.00
66668;BME280;57205;51.438;-2.006;2022-12-07T06:46:40;101678.56;;;-0.63;100.00
66668;BME280;57205;51.438;-2.006;2022-12-07T06:49:06;101676.56;;;-0.69;100.00
66668;BME280;57205;51.438;-2.006;2022-12-07T06:51:32;101681.34;;;-0.73;100.00
66668;BME280;57205;51.438;-2.006;2022-12-07T06:54:00;101672.81;;;-0.75;100.00
66668;BME280;57205;51.438;-2.006;2022-12-07T06:56:25;101682.16;;;-0.72;100.00
66668;BME280;57205;51.438;-2.006;2022-12-07T06:58:51;101680.50;;;-0.73;100.00
66668;BME280;57205;51.438;-2.006;2022-12-07T07:01:17;101678.38;;;-0.78;100.00
66668;BME280;57205;51.438;-2.006;2022-12-07T07:03:44;101677.88;;;-0.81;100.00
66668;BME280;57205;51.438;-2.006;2022-12-07T07:06:10;101683.47;;;-0.84;100.00
66668;BME280;57205;51.438;-2.006;2022-12-07T07:08:36;101680.19;;;-0.86;100.00
66668;BME280;57205;51.438;-2.006;2022-12-07T07:11:02;101676.91;;;-0.88;100.00
66668;BME280;57205;51.438;-2.006;2022-12-07T07:13:28;101678.88;;;-0.90;100.00
66668;BME280;57205;51.438;-2.006;2022-12-07T07:15:54;101672.16;;;-0.93;100.00
66668;BME280;57205;51.438;-2.006;2022-12-07T07:18:19;101676.41;;;-0.92;100.00
66668;BME280;57205;51.438;-2.006;2022-12-07T07:20:45;101670.31;;;-0.92;100.00
66668;BME280;57205;51.438;-2.006;2022-12-07T07:23:11;101669.34;;;-0.91;100.00
66668;BME280;57205;51.438;-2.006;2022-12-07T07:25:36;101680.84;;;-0.92;100.00
66668;BME280;57205;51.438;-2.006;2022-12-07T07:28:02;101675.59;;;-0.92;100.00
66668;BME280;57205;51.438;-2.006;2022-12-07T07:30:28;101678.72;;;-0.97;100.00
66668;BME280;57205;51.438;-2.006;2022-12-07T07:33:01;101682.94;;;-1.04;100.00
66668;BME280;57205;51.438;-2.006;2022-12-07T07:35:28;101687.72;;;-1.08;100.00
66668;BME280;57205;51.438;-2.006;2022-12-07T07:37:54;101689.69;;;-1.10;100.00
66668;BME280;57205;51.438;-2.006;2022-12-07T07:40:20;101688.03;;;-1.11;100.00
66668;BME280;57205;51.438;-2.006;2022-12-07T07:42:49;101688.88;;;-1.10;100.00
66668;BME280;57205;51.438;-2.006;2022-12-07T07:45:15;101688.88;;;-1.10;100.00
66668;BME280;57205;51.438;-2.006;2022-12-07T07:47:41;101691.66;;;-1.12;100.00
66668;BME280;57205;51.438;-2.006;2022-12-07T07:50:06;101685.59;;;-1.12;100.00
66668;BME280;57205;51.438;-2.006;2022-12-07T07:52:32;101682.97;;;-1.12;100.00
66668;BME280;57205;51.438;-2.006;2022-12-07T07:54:58;101685.75;;;-1.14;100.00
66668;BME280;57205;51.438;-2.006;2022-12-07T07:57:23;101687.38;;;-1.13;100.00
66668;BME280;57205;51.438;-2.006;2022-12-07T07:59:49;101686.72;;;-1.15;100.00
66668;BME280;57205;51.438;-2.006;2022-12-07T08:02:16;101686.22;;;-1.18;100.00
66668;BME280;57205;51.438;-2.006;2022-12-07T08:04:43;101688.34;;;-1.22;100.00
66668;BME280;57205;51.438;-2.006;2022-12-07T08:07:10;101689.34;;;-1.23;100.00
66668;BME280;57205;51.438;-2.006;2022-12-07T08:09:35;101695.41;;;-1.22;100.00
66668;BME280;57205;51.438;-2.006;2022-12-07T08:12:01;101693.78;;;-1.23;100.00
66668;BME280;57205;51.438;-2.006;2022-12-07T08:14:26;101693.28;;;-1.19;100.00
66668;BME280;57205;51.438;-2.006;2022-12-07T08:16:54;101699.53;;;-1.20;100.00
66668;BME280;57205;51.438;-2.006;2022-12-07T08:19:22;101706.41;;;-1.19;100.00
66668;BME280;57205;51.438;-2.006;2022-12-07T08:21:48;101704.44;;;-1.17;100.00
66668;BME280;57205;51.438;-2.006;2022-12-07T08:24:15;101697.41;;;-1.16;100.00
66668;BME280;57205;51.438;-2.006;2022-12-07T08:26:41;101706.44;;;-1.11;100.00
66668;BME280;57205;51.438;-2.006;2022-12-07T08:29:07;101700.53;;;-1.05;100.00
66668;BME280;57205;51.438;-2.006;2022-12-07T08:31:32;101710.41;;;-0.98;100.00
66668;BME280;57205;51.438;-2.006;2022-12-07T08:33:58;101706.31;;;-0.93;100.00
66668;BME280;57205;51.438;-2.006;2022-12-07T08:36:24;101709.06;;;-0.94;100.00
66668;BME280;57205;51.438;-2.006;2022-12-07T08:38:51;101707.75;;;-0.90;100.00
66668;BME280;57205;51.438;-2.006;2022-12-07T08:41:17;101707.59;;;-0.89;100.00
66668;BME280;57205;51.438;-2.006;2022-12-07T08:43:42;101707.94;;;-0.84;100.00
66668;BME280;57205;51.438;-2.006;2022-12-07T08:48:45;101695.97;;;-0.78;100.00
66668;BME280;57205;51.438;-2.006;2022-12-07T08:51:12;101693.81;;;-0.75;100.00
66668;BME280;57205;51.438;-2.006;2022-12-07T08:53:39;101691.19;;;-0.75;100.00
66668;BME280;57205;51.438;-2.006;2022-12-07T08:56:05;101703.50;;;-0.75;100.00
66668;BME280;57205;51.438;-2.006;2022-12-07T08:58:33;101705.47;;;-0.77;100.00
66668;BME280;57205;51.438;-2.006;2022-12-07T09:00:59;101699.25;;;-0.76;100.00
66668;BME280;57205;51.438;-2.006;2022-12-07T09:03:24;101695.78;;;-0.77;100.00
66668;BME280;57205;51.438;-2.006;2022-12-07T09:05:49;101694.97;;;-0.77;100.00
66668;BME280;57205;51.438;-2.006;2022-12-07T09:08:15;101690.53;;;-0.77;100.00
66668;BME280;57205;51.438;-2.006;2022-12-07T09:10:41;101697.09;;;-0.73;100.00
66668;BME280;57205;51.438;-2.006;2022-12-07T09:13:07;101689.88;;;-0.71;100.00
66668;BME280;57205;51.438;-2.006;2022-12-07T09:15:32;101698.91;;;-0.65;100.00
66668;BME280;57205;51.438;-2.006;2022-12-07T09:17:58;101701.69;;;-0.59;100.00
66668;BME280;57205;51.438;-2.006;2022-12-07T09:20:24;101694.13;;;-0.54;100.00
66668;BME280;57205;51.438;-2.006;2022-12-07T09:22:50;101693.63;;;-0.49;100.00
66668;BME280;57205;51.438;-2.006;2022-12-07T09:25:15;101695.44;;;-0.42;100.00
66668;BME280;57205;51.438;-2.006;2022-12-07T09:27:42;101687.38;;;-0.40;100.00
66668;BME280;57205;51.438;-2.006;2022-12-07T09:30:08;101695.94;;;-0.38;100.00
66668;BME280;57205;51.438;-2.006;2022-12-07T09:32:33;101691.00;;;-0.41;100.00
66668;BME280;57205;51.438;-2.006;2022-12-07T09:34:58;101692.47;;;-0.39;100.00
66668;BME280;57205;51.438;-2.006;2022-12-07T09:37:27;101694.97;;;-0.37;100.00
66668;BME280;57205;51.438;-2.006;2022-12-07T09:39:52;101695.59;;;-0.35;100.00
66668;BME280;57205;51.438;-2.006;2022-12-07T09:42:39;101694.44;;;-0.33;100.00
66668;BME280;57205;51.438;-2.006;2022-12-07T09:45:06;101694.59;;;-0.34;100.00
66668;BME280;57205;51.438;-2.006;2022-12-07T09:47:33;101695.44;;;-0.34;100.00
66668;BME280;57205;51.438;-2.006;2022-12-07T09:50:10;101694.78;;;-0.36;100.00
66668;BME280;57205;51.438;-2.006;2022-12-07T09:52:37;101707.28;;;-0.38;100.00
66668;BME280;57205;51.438;-2.006;2022-12-07T09:55:03;101709.41;;;-0.41;100.00
66668;BME280;57205;51.438;-2.006;2022-12-07T09:57:30;101709.25;;;-0.40;100.00
66668;BME280;57205;51.438;-2.006;2022-12-07T10:00:03;101706.63;;;-0.32;100.00
66668;BME280;57205;51.438;-2.006;2022-12-07T10:02:41;101711.50;;;-0.13;100.00
66668;BME280;57205;51.438;-2.006;2022-12-07T10:05:19;101713.25;;;0.11;100.00
66668;BME280;57205;51.438;-2.006;2022-12-07T10:07:46;101703.97;;;0.31;100.00
66668;BME280;57205;51.438;-2.006;2022-12-07T10:10:26;101703.84;;;0.55;100.00
66668;BME280;57205;51.438;-2.006;2022-12-07T10:12:55;101705.03;;;0.83;99.51
66668;BME280;57205;51.438;-2.006;2022-12-07T10:15:20;101692.00;;;1.05;98.50
66668;BME280;57205;51.438;-2.006;2022-12-07T10:17:52;101689.97;;;1.15;97.09
66668;BME280;57205;51.438;-2.006;2022-12-07T10:20:24;101691.13;;;1.35;96.44
66668;BME280;57205;51.438;-2.006;2022-12-07T10:22:58;101688.94;;;1.38;95.74
66668;BME280;57205;51.438;-2.006;2022-12-07T10:25:30;101684.25;;;1.48;95.23
66668;BME280;57205;51.438;-2.006;2022-12-07T10:30:48;101667.44;;;1.64;95.64
66668;BME280;57205;51.438;-2.006;2022-12-07T10:35:53;101665.81;;;1.92;96.36
66668;BME280;57205;51.438;-2.006;2022-12-07T10:38:19;101664.72;;;2.01;95.90
66668;BME280;57205;51.438;-2.006;2022-12-07T10:40:44;101662.25;;;2.14;96.12
66668;BME280;57205;51.438;-2.006;2022-12-07T10:48:28;101642.53;;;2.46;95.70
66668;BME280;57205;51.438;-2.006;2022-12-07T10:51:15;101639.81;;;2.54;95.76
66668;BME280;57205;51.438;-2.006;2022-12-07T11:22:02;101609.78;;;3.04;91.95
66668;BME280;57205;51.438;-2.006;2022-12-07T11:35:23;101597.31;;;3.19;91.27
66668;BME280;57205;51.438;-2.006;2022-12-07T11:37:32;101585.16;;;3.24;91.80
66668;BME280;57205;51.438;-2.006;2022-12-07T11:40:23;101578.50;;;3.35;92.04
66668;BME280;57205;51.438;-2.006;2022-12-07T11:48:25;101575.03;;;3.62;91.26
66668;BME280;57205;51.438;-2.006;2022-12-07T11:50:56;101567.38;;;3.80;89.84
66668;BME280;57205;51.438;-2.006;2022-12-07T11:56:06;101560.72;;;3.97;88.06
66668;BME280;57205;51.438;-2.006;2022-12-07T12:04:42;101541.22;;;4.11;87.71
66668;BME280;57205;51.438;-2.006;2022-12-07T12:06:42;101543.69;;;4.19;87.97
66668;BME280;57205;51.438;-2.006;2022-12-07T12:09:16;101535.56;;;4.27;87.15
66668;BME280;57205;51.438;-2.006;2022-12-07T12:15:00;101543.69;;;4.26;86.96
66668;BME280;57205;51.438;-2.006;2022-12-07T12:17:39;101539.22;;;4.20;87.55
66668;BME280;57205;51.438;-2.006;2022-12-07T12:23:00;101529.03;;;4.30;88.40
66668;BME280;57205;51.438;-2.006;2022-12-07T12:25:45;101518.44;;;4.23;87.63
66668;BME280;57205;51.438;-2.006;2022-12-07T12:33:55;101521.47;;;4.20;88.23
66668;BME280;57205;51.438;-2.006;2022-12-07T12:46:56;101501.94;;;4.28;85.47
66668;BME280;57205;51.438;-2.006;2022-12-07T12:51:52;101509.66;;;4.29;84.65
66668;BME280;57205;51.438;-2.006;2022-12-07T12:59:32;101496.63;;;4.28;84.35
66668;BME280;57205;51.438;-2.006;2022-12-07T13:02:35;101492.56;;;4.25;84.51
66668;BME280;57205;51.438;-2.006;2022-12-07T13:05:21;101487.66;;;4.22;84.20
66668;BME280;57205;51.438;-2.006;2022-12-07T13:07:52;101491.13;;;4.16;84.91
66668;BME280;57205;51.438;-2.006;2022-12-07T13:15:48;101481.53;;;4.15;85.79
66668;BME280;57205;51.438;-2.006;2022-12-07T13:18:23;101473.19;;;4.18;85.72
66668;BME280;57205;51.438;-2.006;2022-12-07T13:26:00;101457.50;;;4.17;86.05
66668;BME280;57205;51.438;-2.006;2022-12-07T13:28:33;101462.59;;;4.12;86.03
66668;BME280;57205;51.438;-2.006;2022-12-07T13:31:25;101456.69;;;4.16;85.76
66668;BME280;57205;51.438;-2.006;2022-12-07T13:33:50;101441.81;;;4.15;85.43
66668;BME280;57205;51.438;-2.006;2022-12-07T13:36:22;101440.19;;;4.14;85.45
66668;BME280;57205;51.438;-2.006;2022-12-07T13:38:59;101438.56;;;4.13;86.32
66668;BME280;57205;51.438;-2.006;2022-12-07T13:41:27;101437.75;;;4.19;85.78
66668;BME280;57205;51.438;-2.006;2022-12-07T13:46:24;101432.63;;;4.11;85.02
66668;BME280;57205;51.438;-2.006;2022-12-07T13:48:52;101425.50;;;4.05;85.29
66668;BME280;57205;51.438;-2.006;2022-12-07T13:51:19;101419.00;;;4.01;85.17
66668;BME280;57205;51.438;-2.006;2022-12-07T13:53:51;101426.72;;;3.96;85.34
66668;BME280;57205;51.438;-2.006;2022-12-07T13:56:16;101424.88;;;3.90;85.38
66668;BME280;57205;51.438;-2.006;2022-12-07T13:58:42;101414.88;;;3.85;85.48
66668;BME280;57205;51.438;-2.006;2022-12-07T14:01:08;101413.66;;;3.81;85.79
66668;BME280;57205;51.438;-2.006;2022-12-07T14:03:35;101408.16;;;3.76;86.30
66668;BME280;57205;51.438;-2.006;2022-12-07T14:06:25;101405.47;;;3.70;86.51
66668;BME280;57205;51.438;-2.006;2022-12-07T14:09:18;101403.41;;;3.59;86.45
66668;BME280;57205;51.438;-2.006;2022-12-07T14:11:46;101396.03;;;3.48;86.70
66668;BME280;57205;51.438;-2.006;2022-12-07T14:14:18;101402.94;;;3.36;87.50
66668;BME280;57205;51.438;-2.006;2022-12-07T14:16:56;101403.72;;;3.30;88.22
66668;BME280;57205;51.438;-2.006;2022-12-07T14:19:55;101406.09;;;3.18;88.83
66668;BME280;57205;51.438;-2.006;2022-12-07T14:27:32;101388.34;;;2.99;89.98
66668;BME280;57205;51.438;-2.006;2022-12-07T14:30:03;101376.88;;;2.92;90.64
66668;BME280;57205;51.438;-2.006;2022-12-07T14:32:29;101378.28;;;2.88;90.94
66668;BME280;57205;51.438;-2.006;2022-12-07T14:35:13;101379.28;;;2.80;91.59
66668;BME280;57205;51.438;-2.006;2022-12-07T14:37:40;101373.38;;;2.78;91.97
66668;BME280;57205;51.438;-2.006;2022-12-07T14:40:06;101376.38;;;2.75;91.82
66668;BME280;57205;51.438;-2.006;2022-12-07T14:42:33;101366.03;;;2.74;92.26
66668;BME280;57205;51.438;-2.006;2022-12-07T14:45:00;101369.88;;;2.71;92.75
66668;BME280;57205;51.438;-2.006;2022-12-07T14:47:26;101365.19;;;2.73;93.11
66668;BME280;57205;51.438;-2.006;2022-12-07T14:49:52;101369.88;;;2.71;93.37
66668;BME280;57205;51.438;-2.006;2022-12-07T14:52:25;101370.88;;;2.70;93.74
66668;BME280;57205;51.438;-2.006;2022-12-07T14:54:51;101368.66;;;2.67;93.55
66668;BME280;57205;51.438;-2.006;2022-12-07T14:57:17;101367.19;;;2.65;93.51
66668;BME280;57205;51.438;-2.006;2022-12-07T14:59:43;101365.13;;;2.60;93.73
66668;BME280;57205;51.438;-2.006;2022-12-07T15:02:12;101364.75;;;2.63;93.50
66668;BME280;57205;51.438;-2.006;2022-12-07T15:04:38;101361.69;;;2.60;93.47
66668;BME280;57205;51.438;-2.006;2022-12-07T15:07:06;101360.84;;;2.59;93.96